sensor_id;sensor_type;location;lat;lon;timestamp;P1;durP1;ratioP1;P2;durP2;ratioP2
6651;SDS011;3362;50.892;10.692;2023-07-02T00:00:03;1.85;;;1.50;;
6651;SDS011;3362;50.892;10.692;2023-07-02T00:02:30;1.42;;;1.30;;
6651;SDS011;3362;50.892;10.692;2023-07-02T00:04:56;1.52;;;1.42;;
6651;SDS011;3362;50.892;10.692;2023-07-02T00:07:22;1.90;;;1.35;;
6651;SDS011;3362;50.892;10.692;2023-07-02T00:09:50;1.50;;;1.40;;
6651;SDS011;3362;50.892;10.692;2023-07-02T00:12:17;1.73;;;1.60;;
6651;SDS011;3362;50.892;10.692;2023-07-02T00:14:43;1.83;;;1.60;;
6651;SDS011;3362;50.892;10.692;2023-07-02T00:17:10;1.95;;;1.55;;
6651;SDS011;3362;50.892;10.692;2023-07-02T00:19:38;1.88;;;1.55;;
6651;SDS011;3362;50.892;10.692;2023-07-02T00:22:06;1.35;;;1.25;;
6651;SDS011;3362;50.892;10.692;2023-07-02T00:24:32;1.65;;;1.55;;
6651;SDS011;3362;50.892;10.692;2023-07-02T00:26:59;4.45;;;1.48;;
6651;SDS011;3362;50.892;10.692;2023-07-02T00:29:25;2.20;;;1.42;;
6651;SDS011;3362;50.892;10.692;2023-07-02T00:31:51;1.48;;;1.25;;
6651;SDS011;3362;50.892;10.692;2023-07-02T00:34:19;2.53;;;1.50;;
6651;SDS011;3362;50.892;10.692;2023-07-02T00:36:45;3.33;;;1.67;;
6651;SDS011;3362;50.892;10.692;2023-07-02T00:39:11;4.90;;;1.70;;
6651;SDS011;3362;50.892;10.692;2023-07-02T00:41:38;1.60;;;1.25;;
6651;SDS011;3362;50.892;10.692;2023-07-02T00:44:05;1.20;;;1.10;;
6651;SDS011;3362;50.892;10.692;2023-07-02T00:46:31;3.25;;;2.08;;
6651;SDS011;3362;50.892;10.692;2023-07-02T00:48:57;2.28;;;1.52;;
6651;SDS011;3362;50.892;10.692;2023-07-02T00:51:27;1.63;;;1.52;;
6651;SDS011;3362;50.892;10.692;2023-07-02T00:53:54;1.23;;;1.13;;
6651;SDS011;3362;50.892;10.692;2023-07-02T00:56:21;1.55;;;1.40;;
6651;SDS011;3362;50.892;10.692;2023-07-02T00:58:48;1.98;;;1.50;;
6651;SDS011;3362;50.892;10.692;2023-07-02T01:01:15;2.72;;;1.40;;
6651;SDS011;3362;50.892;10.692;2023-07-02T01:03:51;1.23;;;1.13;;
6651;SDS011;3362;50.892;10.692;2023-07-02T01:06:23;2.45;;;1.60;;
6651;SDS011;3362;50.892;10.692;2023-07-02T01:08:56;1.80;;;1.27;;
6651;SDS011;3362;50.892;10.692;2023-07-02T01:11:23;1.50;;;1.40;;
6651;SDS011;3362;50.892;10.692;2023-07-02T01:13:51;1.58;;;1.48;;
6651;SDS011;3362;50.892;10.692;2023-07-02T01:16:19;1.75;;;1.42;;
6651;SDS011;3362;50.892;10.692;2023-07-02T01:18:45;2.97;;;1.73;;
6651;SDS011;3362;50.892;10.692;2023-07-02T01:21:13;3.70;;;1.38;;
6651;SDS011;3362;50.892;10.692;2023-07-02T01:23:39;2.85;;;1.70;;
6651;SDS011;3362;50.892;10.692;2023-07-02T01:26:05;4.30;;;1.52;;
6651;SDS011;3362;50.892;10.692;2023-07-02T01:28:34;2.42;;;1.63;;
6651;SDS011;3362;50.892;10.692;2023-07-02T01:31:01;1.73;;;1.58;;
6651;SDS011;3362;50.892;10.692;2023-07-02T01:33:27;3.10;;;1.85;;
6651;SDS011;3362;50.892;10.692;2023-07-02T01:35:53;2.25;;;1.95;;
6651;SDS011;3362;50.892;10.692;2023-07-02T01:38:20;4.88;;;1.90;;
6651;SDS011;3362;50.892;10.692;2023-07-02T01:40:47;2.97;;;2.10;;
6651;SDS011;3362;50.892;10.692;2023-07-02T01:43:13;2.75;;;2.00;;
6651;SDS011;3362;50.892;10.692;2023-07-02T01:45:40;2.83;;;2.20;;
6651;SDS011;3362;50.892;10.692;2023-07-02T01:48:07;3.08;;;2.08;;
6651;SDS011;3362;50.892;10.692;2023-07-02T01:50:33;3.22;;;2.13;;
6651;SDS011;3362;50.892;10.692;2023-07-02T01:52:59;2.85;;;2.10;;
6651;SDS011;3362;50.892;10.692;2023-07-02T01:55:26;1.95;;;1.85;;
6651;SDS011;3362;50.892;10.692;2023-07-02T01:57:53;4.10;;;2.28;;
6651;SDS011;3362;50.892;10.692;2023-07-02T02:00:19;2.60;;;1.90;;
6651;SDS011;3362;50.892;10.692;2023-07-02T02:02:45;2.03;;;1.83;;
6651;SDS011;3362;50.892;10.692;2023-07-02T02:05:11;1.85;;;1.67;;
6651;SDS011;3362;50.892;10.692;2023-07-02T02:07:37;2.00;;;1.80;;
6651;SDS011;3362;50.892;10.692;2023-07-02T02:10:04;2.95;;;2.10;;
6651;SDS011;3362;50.892;10.692;2023-07-02T02:12:31;2.38;;;2.15;;
6651;SDS011;3362;50.892;10.692;2023-07-02T02:14:58;2.63;;;2.22;;
6651;SDS011;3362;50.892;10.692;2023-07-02T02:17:24;3.05;;;2.45;;
6651;SDS011;3362;50.892;10.692;2023-07-02T02:19:50;1.80;;;1.70;;
6651;SDS011;3362;50.892;10.692;2023-07-02T02:22:16;6.40;;;2.28;;
6651;SDS011;3362;50.892;10.692;2023-07-02T02:24:42;2.10;;;1.90;;
6651;SDS011;3362;50.892;10.692;2023-07-02T02:27:09;2.33;;;2.13;;
6651;SDS011;3362;50.892;10.692;2023-07-02T02:29:36;2.60;;;2.00;;
6651;SDS011;3362;50.892;10.692;2023-07-02T02:32:02;3.38;;;2.20;;
6651;SDS011;3362;50.892;10.692;2023-07-02T02:34:29;2.30;;;1.73;;
6651;SDS011;3362;50.892;10.692;2023-07-02T02:36:55;2.33;;;2.10;;
6651;SDS011;3362;50.892;10.692;2023-07-02T02:39:21;3.67;;;2.08;;
6651;SDS011;3362;50.892;10.692;2023-07-02T02:41:48;2.70;;;2.05;;
6651;SDS011;3362;50.892;10.692;2023-07-02T02:44:14;2.90;;;2.28;;
6651;SDS011;3362;50.892;10.692;2023-07-02T02:46:41;2.20;;;2.00;;
6651;SDS011;3362;50.892;10.692;2023-07-02T02:49:07;2.55;;;2.35;;
6651;SDS011;3362;50.892;10.692;2023-07-02T02:51:34;2.50;;;2.30;;
6651;SDS011;3362;50.892;10.692;2023-07-02T02:54:00;2.45;;;2.20;;
6651;SDS011;3362;50.892;10.692;2023-07-02T02:56:26;2.45;;;2.15;;
6651;SDS011;3362;50.892;10.692;2023-07-02T02:58:52;4.03;;;2.45;;
6651;SDS011;3362;50.892;10.692;2023-07-02T03:01:19;3.47;;;2.00;;
6651;SDS011;3362;50.892;10.692;2023-07-02T03:03:46;2.13;;;1.90;;
6651;SDS011;3362;50.892;10.692;2023-07-02T03:06:13;1.90;;;1.70;;
6651;SDS011;3362;50.892;10.692;2023-07-02T03:08:39;2.72;;;2.10;;
6651;SDS011;3362;50.892;10.692;2023-07-02T03:11:05;3.30;;;2.08;;
6651;SDS011;3362;50.892;10.692;2023-07-02T03:13:32;2.42;;;2.03;;
6651;SDS011;3362;50.892;10.692;2023-07-02T03:15:58;2.03;;;1.92;;
6651;SDS011;3362;50.892;10.692;2023-07-02T03:18:24;2.40;;;1.73;;
6651;SDS011;3362;50.892;10.692;2023-07-02T03:20:52;3.63;;;2.03;;
6651;SDS011;3362;50.892;10.692;2023-07-02T03:23:18;1.88;;;1.77;;
6651;SDS011;3362;50.892;10.692;2023-07-02T03:25:44;2.28;;;1.63;;
6651;SDS011;3362;50.892;10.692;2023-07-02T03:28:10;2.70;;;2.03;;
6651;SDS011;3362;50.892;10.692;2023-07-02T03:30:36;2.70;;;1.80;;
6651;SDS011;3362;50.892;10.692;2023-07-02T03:33:03;2.10;;;1.67;;
6651;SDS011;3362;50.892;10.692;2023-07-02T03:35:29;1.92;;;1.73;;
6651;SDS011;3362;50.892;10.692;2023-07-02T03:37:57;5.43;;;1.88;;
6651;SDS011;3362;50.892;10.692;2023-07-02T03:40:23;2.60;;;1.80;;
6651;SDS011;3362;50.892;10.692;2023-07-02T03:42:49;2.13;;;1.60;;
6651;SDS011;3362;50.892;10.692;2023-07-02T03:45:15;1.75;;;1.50;;
6651;SDS011;3362;50.892;10.692;2023-07-02T03:47:42;2.25;;;1.33;;
6651;SDS011;3362;50.892;10.692;2023-07-02T03:50:08;4.95;;;1.65;;
6651;SDS011;3362;50.892;10.692;2023-07-02T03:52:35;1.58;;;1.40;;
6651;SDS011;3362;50.892;10.692;2023-07-02T03:55:02;1.63;;;1.52;;
6651;SDS011;3362;50.892;10.692;2023-07-02T03:57:29;1.55;;;1.45;;
6651;SDS011;3362;50.892;10.692;2023-07-02T03:59:55;3.33;;;1.58;;
6651;SDS011;3362;50.892;10.692;2023-07-02T04:02:22;2.28;;;1.42;;
6651;SDS011;3362;50.892;10.692;2023-07-02T04:04:48;3.58;;;1.40;;
6651;SDS011;3362;50.892;10.692;2023-07-02T04:07:14;6.78;;;1.80;;
6651;SDS011;3362;50.892;10.692;2023-07-02T04:09:40;1.50;;;1.38;;
6651;SDS011;3362;50.892;10.692;2023-07-02T04:12:08;1.58;;;1.48;;
6651;SDS011;3362;50.892;10.692;2023-07-02T04:14:35;1.60;;;1.50;;
6651;SDS011;3362;50.892;10.692;2023-07-02T04:17:01;1.80;;;1.70;;
6651;SDS011;3362;50.892;10.692;2023-07-02T04:19:28;1.50;;;1.20;;
6651;SDS011;3362;50.892;10.692;2023-07-02T04:21:54;2.05;;;1.50;;
6651;SDS011;3362;50.892;10.692;2023-07-02T04:24:20;1.83;;;1.35;;
6651;SDS011;3362;50.892;10.692;2023-07-02T04:26:46;3.10;;;2.00;;
6651;SDS011;3362;50.892;10.692;2023-07-02T04:29:14;1.85;;;1.70;;
6651;SDS011;3362;50.892;10.692;2023-07-02T04:31:40;4.03;;;1.90;;
6651;SDS011;3362;50.892;10.692;2023-07-02T04:34:06;2.15;;;1.95;;
6651;SDS011;3362;50.892;10.692;2023-07-02T04:36:32;1.95;;;1.63;;
6651;SDS011;3362;50.892;10.692;2023-07-02T04:38:59;1.38;;;1.10;;
6651;SDS011;3362;50.892;10.692;2023-07-02T04:41:25;4.57;;;1.55;;
6651;SDS011;3362;50.892;10.692;2023-07-02T04:43:51;2.20;;;1.52;;
6651;SDS011;3362;50.892;10.692;2023-07-02T04:46:19;2.97;;;1.80;;
6651;SDS011;3362;50.892;10.692;2023-07-02T04:48:45;1.70;;;1.60;;
6651;SDS011;3362;50.892;10.692;2023-07-02T04:51:11;1.73;;;1.63;;
6651;SDS011;3362;50.892;10.692;2023-07-02T04:53:37;3.08;;;1.50;;
6651;SDS011;3362;50.892;10.692;2023-07-02T04:56:04;2.28;;;1.52;;
6651;SDS011;3362;50.892;10.692;2023-07-02T04:58:30;1.65;;;1.55;;
6651;SDS011;3362;50.892;10.692;2023-07-02T05:00:56;1.63;;;1.33;;
6651;SDS011;3362;50.892;10.692;2023-07-02T05:03:24;5.00;;;1.60;;
6651;SDS011;3362;50.892;10.692;2023-07-02T05:05:50;1.45;;;1.35;;
6651;SDS011;3362;50.892;10.692;2023-07-02T05:08:16;2.25;;;1.63;;
6651;SDS011;3362;50.892;10.692;2023-07-02T05:10:42;1.92;;;1.60;;
6651;SDS011;3362;50.892;10.692;2023-07-02T05:13:08;1.65;;;1.55;;
6651;SDS011;3362;50.892;10.692;2023-07-02T05:15:35;2.33;;;1.50;;
6651;SDS011;3362;50.892;10.692;2023-07-02T05:18:01;1.75;;;1.38;;
6651;SDS011;3362;50.892;10.692;2023-07-02T05:20:28;2.10;;;1.58;;
6651;SDS011;3362;50.892;10.692;2023-07-02T05:22:54;1.92;;;1.50;;
6651;SDS011;3362;50.892;10.692;2023-07-02T05:25:21;1.60;;;1.50;;
6651;SDS011;3362;50.892;10.692;2023-07-02T05:27:47;1.90;;;1.35;;
6651;SDS011;3362;50.892;10.692;2023-07-02T05:30:13;1.70;;;1.33;;
6651;SDS011;3362;50.892;10.692;2023-07-02T05:32:39;2.80;;;1.58;;
6651;SDS011;3362;50.892;10.692;2023-07-02T05:35:06;1.75;;;1.50;;
6651;SDS011;3362;50.892;10.692;2023-07-02T05:37:33;1.90;;;1.45;;
6651;SDS011;3362;50.892;10.692;2023-07-02T05:39:59;2.00;;;1.48;;
6651;SDS011;3362;50.892;10.692;2023-07-02T05:42:25;3.25;;;2.05;;
6651;SDS011;3362;50.892;10.692;2023-07-02T05:44:52;1.80;;;1.63;;
6651;SDS011;3362;50.892;10.692;2023-07-02T05:47:18;1.65;;;1.25;;
6651;SDS011;3362;50.892;10.692;2023-07-02T05:49:44;1.98;;;1.77;;
6651;SDS011;3362;50.892;10.692;2023-07-02T05:52:10;1.63;;;1.27;;
6651;SDS011;3362;50.892;10.692;2023-07-02T05:54:39;2.88;;;1.90;;
6651;SDS011;3362;50.892;10.692;2023-07-02T05:57:06;3.63;;;1.83;;
6651;SDS011;3362;50.892;10.692;2023-07-02T05:59:32;2.13;;;1.52;;
6651;SDS011;3362;50.892;10.692;2023-07-02T06:01:58;3.80;;;2.08;;
6651;SDS011;3362;50.892;10.692;2023-07-02T06:04:24;3.83;;;2.03;;
6651;SDS011;3362;50.892;10.692;2023-07-02T06:06:50;2.33;;;1.88;;
6651;SDS011;3362;50.892;10.692;2023-07-02T06:09:16;3.15;;;2.08;;
6651;SDS011;3362;50.892;10.692;2023-07-02T06:11:44;2.50;;;2.03;;
6651;SDS011;3362;50.892;10.692;2023-07-02T06:14:10;2.78;;;2.20;;
6651;SDS011;3362;50.892;10.692;2023-07-02T06:16:36;2.22;;;2.03;;
6651;SDS011;3362;50.892;10.692;2023-07-02T06:19:02;2.70;;;2.17;;
6651;SDS011;3362;50.892;10.692;2023-07-02T06:21:29;2.65;;;1.98;;
6651;SDS011;3362;50.892;10.692;2023-07-02T06:23:56;3.20;;;2.05;;
6651;SDS011;3362;50.892;10.692;2023-07-02T06:26:22;7.20;;;1.88;;
6651;SDS011;3362;50.892;10.692;2023-07-02T06:28:50;2.42;;;2.00;;
6651;SDS011;3362;50.892;10.692;2023-07-02T06:31:16;2.00;;;1.80;;
6651;SDS011;3362;50.892;10.692;2023-07-02T06:33:42;2.13;;;1.90;;
6651;SDS011;3362;50.892;10.692;2023-07-02T06:36:08;1.90;;;1.75;;
6651;SDS011;3362;50.892;10.692;2023-07-02T06:38:35;1.67;;;1.55;;
6651;SDS011;3362;50.892;10.692;2023-07-02T06:41:03;3.05;;;2.10;;
6651;SDS011;3362;50.892;10.692;2023-07-02T06:43:29;3.80;;;2.55;;
6651;SDS011;3362;50.892;10.692;2023-07-02T06:45:57;4.75;;;1.80;;
6651;SDS011;3362;50.892;10.692;2023-07-02T06:48:23;2.22;;;1.92;;
6651;SDS011;3362;50.892;10.692;2023-07-02T06:50:49;1.85;;;1.67;;
6651;SDS011;3362;50.892;10.692;2023-07-02T06:53:15;3.88;;;2.03;;
6651;SDS011;3362;50.892;10.692;2023-07-02T06:55:42;3.00;;;2.22;;
6651;SDS011;3362;50.892;10.692;2023-07-02T06:58:08;3.17;;;2.58;;
6651;SDS011;3362;50.892;10.692;2023-07-02T07:00:34;8.07;;;2.47;;
6651;SDS011;3362;50.892;10.692;2023-07-02T07:03:02;5.68;;;2.53;;
6651;SDS011;3362;50.892;10.692;2023-07-02T07:05:29;6.10;;;2.35;;
6651;SDS011;3362;50.892;10.692;2023-07-02T07:07:55;5.47;;;2.75;;
6651;SDS011;3362;50.892;10.692;2023-07-02T07:10:21;4.85;;;2.28;;
6651;SDS011;3362;50.892;10.692;2023-07-02T07:12:47;4.35;;;3.00;;
6651;SDS011;3362;50.892;10.692;2023-07-02T07:15:14;7.22;;;2.30;;
6651;SDS011;3362;50.892;10.692;2023-07-02T07:17:40;4.85;;;1.95;;
6651;SDS011;3362;50.892;10.692;2023-07-02T07:20:08;4.65;;;2.65;;
6651;SDS011;3362;50.892;10.692;2023-07-02T07:22:34;3.88;;;2.15;;
6651;SDS011;3362;50.892;10.692;2023-07-02T07:25:00;3.65;;;2.55;;
6651;SDS011;3362;50.892;10.692;2023-07-02T07:27:26;3.45;;;1.83;;
6651;SDS011;3362;50.892;10.692;2023-07-02T07:29:53;3.15;;;2.10;;
6651;SDS011;3362;50.892;10.692;2023-07-02T07:32:19;2.65;;;2.10;;
6651;SDS011;3362;50.892;10.692;2023-07-02T07:34:45;1.98;;;1.70;;
6651;SDS011;3362;50.892;10.692;2023-07-02T07:37:13;1.92;;;1.63;;
6651;SDS011;3362;50.892;10.692;2023-07-02T07:39:39;3.10;;;1.77;;
6651;SDS011;3362;50.892;10.692;2023-07-02T07:42:06;3.35;;;1.95;;
6651;SDS011;3362;50.892;10.692;2023-07-02T07:44:32;2.95;;;1.55;;
6651;SDS011;3362;50.892;10.692;2023-07-02T07:46:59;3.00;;;1.70;;
6651;SDS011;3362;50.892;10.692;2023-07-02T07:49:25;3.08;;;1.83;;
6651;SDS011;3362;50.892;10.692;2023-07-02T07:51:51;2.95;;;1.45;;
6651;SDS011;3362;50.892;10.692;2023-07-02T07:54:19;3.38;;;1.73;;
6651;SDS011;3362;50.892;10.692;2023-07-02T07:56:45;3.22;;;2.05;;
6651;SDS011;3362;50.892;10.692;2023-07-02T07:59:11;5.45;;;1.70;;
6651;SDS011;3362;50.892;10.692;2023-07-02T08:01:39;2.17;;;1.90;;
6651;SDS011;3362;50.892;10.692;2023-07-02T08:04:05;2.03;;;1.58;;
6651;SDS011;3362;50.892;10.692;2023-07-02T08:06:32;2.95;;;1.88;;
6651;SDS011;3362;50.892;10.692;2023-07-02T08:08:58;2.92;;;1.50;;
6651;SDS011;3362;50.892;10.692;2023-07-02T08:11:25;4.15;;;1.70;;
6651;SDS011;3362;50.892;10.692;2023-07-02T08:13:52;6.63;;;1.95;;
6651;SDS011;3362;50.892;10.692;2023-07-02T08:16:18;2.22;;;1.42;;
6651;SDS011;3362;50.892;10.692;2023-07-02T08:18:44;4.05;;;1.60;;
6651;SDS011;3362;50.892;10.692;2023-07-02T08:21:10;3.55;;;1.65;;
6651;SDS011;3362;50.892;10.692;2023-07-02T08:23:37;2.72;;;1.50;;
6651;SDS011;3362;50.892;10.692;2023-07-02T08:26:03;2.63;;;1.75;;
6651;SDS011;3362;50.892;10.692;2023-07-02T08:28:30;2.95;;;1.40;;
6651;SDS011;3362;50.892;10.692;2023-07-02T08:30:56;4.05;;;2.08;;
6651;SDS011;3362;50.892;10.692;2023-07-02T08:33:24;2.72;;;1.80;;
6651;SDS011;3362;50.892;10.692;2023-07-02T08:35:50;3.88;;;1.80;;
6651;SDS011;3362;50.892;10.692;2023-07-02T08:38:16;3.47;;;1.90;;
6651;SDS011;3362;50.892;10.692;2023-07-02T08:40:42;2.60;;;1.52;;
6651;SDS011;3362;50.892;10.692;2023-07-02T08:43:08;4.88;;;1.83;;
6651;SDS011;3362;50.892;10.692;2023-07-02T08:45:36;3.88;;;2.40;;
6651;SDS011;3362;50.892;10.692;2023-07-02T08:48:02;3.78;;;1.95;;
6651;SDS011;3362;50.892;10.692;2023-07-02T08:50:29;5.03;;;2.30;;
6651;SDS011;3362;50.892;10.692;2023-07-02T08:52:55;9.95;;;2.60;;
6651;SDS011;3362;50.892;10.692;2023-07-02T08:55:21;5.63;;;2.38;;
6651;SDS011;3362;50.892;10.692;2023-07-02T08:57:49;2.83;;;1.85;;
6651;SDS011;3362;50.892;10.692;2023-07-02T09:00:16;4.38;;;2.17;;
6651;SDS011;3362;50.892;10.692;2023-07-02T09:02:44;5.57;;;2.20;;
6651;SDS011;3362;50.892;10.692;2023-07-02T09:05:11;4.53;;;2.20;;
6651;SDS011;3362;50.892;10.692;2023-07-02T09:07:44;5.22;;;2.35;;
6651;SDS011;3362;50.892;10.692;2023-07-02T09:10:11;4.53;;;2.55;;
6651;SDS011;3362;50.892;10.692;2023-07-02T09:12:38;7.55;;;2.40;;
6651;SDS011;3362;50.892;10.692;2023-07-02T09:15:05;4.55;;;2.30;;
6651;SDS011;3362;50.892;10.692;2023-07-02T09:17:32;5.30;;;2.25;;
6651;SDS011;3362;50.892;10.692;2023-07-02T09:20:01;4.07;;;3.45;;
6651;SDS011;3362;50.892;10.692;2023-07-02T09:22:29;3.30;;;2.20;;
6651;SDS011;3362;50.892;10.692;2023-07-02T09:24:57;4.75;;;2.58;;
6651;SDS011;3362;50.892;10.692;2023-07-02T09:27:33;3.10;;;2.38;;
6651;SDS011;3362;50.892;10.692;2023-07-02T09:30:04;5.45;;;3.22;;
6651;SDS011;3362;50.892;10.692;2023-07-02T09:32:31;7.95;;;3.13;;
6651;SDS011;3362;50.892;10.692;2023-07-02T09:34:57;5.88;;;2.72;;
6651;SDS011;3362;50.892;10.692;2023-07-02T09:37:25;6.05;;;2.55;;
6651;SDS011;3362;50.892;10.692;2023-07-02T09:39:51;5.47;;;3.35;;
6651;SDS011;3362;50.892;10.692;2023-07-02T09:42:19;5.20;;;2.70;;
6651;SDS011;3362;50.892;10.692;2023-07-02T09:44:46;7.50;;;3.08;;
6651;SDS011;3362;50.892;10.692;2023-07-02T09:47:12;5.85;;;2.95;;
6651;SDS011;3362;50.892;10.692;2023-07-02T09:49:39;14.93;;;3.75;;
6651;SDS011;3362;50.892;10.692;2023-07-02T09:52:06;6.28;;;3.45;;
6651;SDS011;3362;50.892;10.692;2023-07-02T09:54:33;7.28;;;3.03;;
6651;SDS011;3362;50.892;10.692;2023-07-02T09:57:00;7.40;;;3.75;;
6651;SDS011;3362;50.892;10.692;2023-07-02T09:59:26;5.18;;;2.88;;
6651;SDS011;3362;50.892;10.692;2023-07-02T10:01:53;6.72;;;3.42;;
6651;SDS011;3362;50.892;10.692;2023-07-02T10:04:20;6.82;;;3.10;;
6651;SDS011;3362;50.892;10.692;2023-07-02T10:06:49;5.60;;;3.30;;
6651;SDS011;3362;50.892;10.692;2023-07-02T10:09:15;11.15;;;3.40;;
6651;SDS011;3362;50.892;10.692;2023-07-02T10:11:43;9.05;;;3.80;;
6651;SDS011;3362;50.892;10.692;2023-07-02T10:14:09;8.80;;;4.18;;
6651;SDS011;3362;50.892;10.692;2023-07-02T10:16:48;5.53;;;3.63;;
6651;SDS011;3362;50.892;10.692;2023-07-02T10:19:14;7.35;;;3.65;;
6651;SDS011;3362;50.892;10.692;2023-07-02T10:21:40;8.95;;;3.65;;
6651;SDS011;3362;50.892;10.692;2023-07-02T10:24:10;6.90;;;3.85;;
6651;SDS011;3362;50.892;10.692;2023-07-02T10:26:36;7.50;;;4.18;;
6651;SDS011;3362;50.892;10.692;2023-07-02T10:29:05;7.38;;;3.72;;
6651;SDS011;3362;50.892;10.692;2023-07-02T10:31:32;9.93;;;3.47;;
6651;SDS011;3362;50.892;10.692;2023-07-02T10:33:58;11.88;;;3.75;;
6651;SDS011;3362;50.892;10.692;2023-07-02T10:36:24;9.23;;;3.95;;
6651;SDS011;3362;50.892;10.692;2023-07-02T10:38:51;7.35;;;4.13;;
6651;SDS011;3362;50.892;10.692;2023-07-02T10:41:24;8.68;;;3.95;;
6651;SDS011;3362;50.892;10.692;2023-07-02T10:43:50;8.32;;;4.57;;
6651;SDS011;3362;50.892;10.692;2023-07-02T10:46:21;9.93;;;4.00;;
6651;SDS011;3362;50.892;10.692;2023-07-02T10:48:51;6.78;;;4.03;;
6651;SDS011;3362;50.892;10.692;2023-07-02T10:51:17;8.85;;;4.57;;
6651;SDS011;3362;50.892;10.692;2023-07-02T10:53:43;6.40;;;4.55;;
6651;SDS011;3362;50.892;10.692;2023-07-02T10:56:15;6.88;;;4.28;;
6651;SDS011;3362;50.892;10.692;2023-07-02T10:58:41;6.07;;;4.28;;
6651;SDS011;3362;50.892;10.692;2023-07-02T11:01:08;5.50;;;3.50;;
6651;SDS011;3362;50.892;10.692;2023-07-02T11:03:35;6.80;;;4.45;;
6651;SDS011;3362;50.892;10.692;2023-07-02T11:06:01;15.80;;;4.57;;
6651;SDS011;3362;50.892;10.692;2023-07-02T11:08:34;7.53;;;4.03;;
6651;SDS011;3362;50.892;10.692;2023-07-02T11:11:06;7.85;;;4.18;;
6651;SDS011;3362;50.892;10.692;2023-07-02T11:13:33;8.45;;;3.88;;
6651;SDS011;3362;50.892;10.692;2023-07-02T11:15:59;8.20;;;4.07;;
6651;SDS011;3362;50.892;10.692;2023-07-02T11:18:29;12.40;;;4.57;;
6651;SDS011;3362;50.892;10.692;2023-07-02T11:20:58;7.85;;;4.57;;
6651;SDS011;3362;50.892;10.692;2023-07-02T11:23:35;8.23;;;4.07;;
6651;SDS011;3362;50.892;10.692;2023-07-02T11:26:01;9.52;;;4.70;;
6651;SDS011;3362;50.892;10.692;2023-07-02T11:28:28;7.40;;;4.20;;
6651;SDS011;3362;50.892;10.692;2023-07-02T11:30:54;6.55;;;3.95;;
6651;SDS011;3362;50.892;10.692;2023-07-02T11:33:31;7.65;;;4.50;;
6651;SDS011;3362;50.892;10.692;2023-07-02T11:35:59;10.43;;;4.15;;
6651;SDS011;3362;50.892;10.692;2023-07-02T11:38:25;6.75;;;4.15;;
6651;SDS011;3362;50.892;10.692;2023-07-02T11:40:52;9.32;;;5.00;;
6651;SDS011;3362;50.892;10.692;2023-07-02T11:43:18;8.68;;;4.13;;
6651;SDS011;3362;50.892;10.692;2023-07-02T11:45:44;8.48;;;3.88;;
6651;SDS011;3362;50.892;10.692;2023-07-02T11:48:10;13.85;;;4.78;;
6651;SDS011;3362;50.892;10.692;2023-07-02T11:50:37;10.38;;;4.60;;
6651;SDS011;3362;50.892;10.692;2023-07-02T11:53:05;7.40;;;3.92;;
6651;SDS011;3362;50.892;10.692;2023-07-02T11:55:31;8.95;;;4.50;;
6651;SDS011;3362;50.892;10.692;2023-07-02T11:57:57;8.93;;;4.15;;
6651;SDS011;3362;50.892;10.692;2023-07-02T12:00:23;11.48;;;5.22;;
6651;SDS011;3362;50.892;10.692;2023-07-02T12:02:51;8.52;;;4.55;;
6651;SDS011;3362;50.892;10.692;2023-07-02T12:05:18;5.47;;;4.07;;
6651;SDS011;3362;50.892;10.692;2023-07-02T12:07:44;7.45;;;4.35;;
6651;SDS011;3362;50.892;10.692;2023-07-02T12:10:11;8.48;;;4.30;;
6651;SDS011;3362;50.892;10.692;2023-07-02T12:12:37;7.15;;;4.30;;
6651;SDS011;3362;50.892;10.692;2023-07-02T12:15:04;9.50;;;4.78;;
6651;SDS011;3362;50.892;10.692;2023-07-02T12:17:30;8.18;;;4.85;;
6651;SDS011;3362;50.892;10.692;2023-07-02T12:19:57;6.20;;;3.60;;
6651;SDS011;3362;50.892;10.692;2023-07-02T12:22:23;9.20;;;4.28;;
6651;SDS011;3362;50.892;10.692;2023-07-02T12:24:49;9.00;;;4.60;;
6651;SDS011;3362;50.892;10.692;2023-07-02T12:27:19;7.00;;;4.43;;
6651;SDS011;3362;50.892;10.692;2023-07-02T12:29:46;13.63;;;6.10;;
6651;SDS011;3362;50.892;10.692;2023-07-02T12:32:13;10.07;;;4.88;;
6651;SDS011;3362;50.892;10.692;2023-07-02T12:34:39;7.63;;;4.00;;
6651;SDS011;3362;50.892;10.692;2023-07-02T12:37:06;11.63;;;4.93;;
6651;SDS011;3362;50.892;10.692;2023-07-02T12:39:32;7.85;;;4.28;;
6651;SDS011;3362;50.892;10.692;2023-07-02T12:41:58;11.40;;;4.38;;
6651;SDS011;3362;50.892;10.692;2023-07-02T12:44:26;7.05;;;4.28;;
6651;SDS011;3362;50.892;10.692;2023-07-02T12:46:52;5.60;;;3.72;;
6651;SDS011;3362;50.892;10.692;2023-07-02T12:49:18;8.95;;;4.15;;
6651;SDS011;3362;50.892;10.692;2023-07-02T12:51:45;7.38;;;4.22;;
6651;SDS011;3362;50.892;10.692;2023-07-02T12:54:12;6.95;;;4.03;;
6651;SDS011;3362;50.892;10.692;2023-07-02T12:56:38;8.68;;;4.18;;
6651;SDS011;3362;50.892;10.692;2023-07-02T12:59:04;9.35;;;4.10;;
6651;SDS011;3362;50.892;10.692;2023-07-02T13:01:31;8.82;;;4.50;;
6651;SDS011;3362;50.892;10.692;2023-07-02T13:03:58;8.68;;;4.28;;
6651;SDS011;3362;50.892;10.692;2023-07-02T13:06:24;8.18;;;4.35;;
6651;SDS011;3362;50.892;10.692;2023-07-02T13:08:50;11.57;;;5.50;;
6651;SDS011;3362;50.892;10.692;2023-07-02T13:11:16;12.20;;;4.57;;
6651;SDS011;3362;50.892;10.692;2023-07-02T13:13:43;12.48;;;5.13;;
6651;SDS011;3362;50.892;10.692;2023-07-02T13:16:09;13.30;;;4.70;;
6651;SDS011;3362;50.892;10.692;2023-07-02T13:18:36;10.05;;;5.05;;
6651;SDS011;3362;50.892;10.692;2023-07-02T13:21:02;7.03;;;4.55;;
6651;SDS011;3362;50.892;10.692;2023-07-02T13:23:29;11.48;;;4.90;;
6651;SDS011;3362;50.892;10.692;2023-07-02T13:25:55;11.88;;;5.57;;
6651;SDS011;3362;50.892;10.692;2023-07-02T13:28:21;8.93;;;4.65;;
6651;SDS011;3362;50.892;10.692;2023-07-02T13:30:48;8.73;;;4.50;;
6651;SDS011;3362;50.892;10.692;2023-07-02T13:33:14;12.35;;;5.43;;
6651;SDS011;3362;50.892;10.692;2023-07-02T13:35:42;10.85;;;5.28;;
6651;SDS011;3362;50.892;10.692;2023-07-02T13:38:08;8.88;;;5.65;;
6651;SDS011;3362;50.892;10.692;2023-07-02T13:40:35;13.40;;;4.80;;
6651;SDS011;3362;50.892;10.692;2023-07-02T13:43:01;12.30;;;5.15;;
6651;SDS011;3362;50.892;10.692;2023-07-02T13:45:28;13.38;;;5.00;;
6651;SDS011;3362;50.892;10.692;2023-07-02T13:47:54;9.95;;;5.40;;
6651;SDS011;3362;50.892;10.692;2023-07-02T13:50:20;11.23;;;5.07;;
6651;SDS011;3362;50.892;10.692;2023-07-02T13:52:48;8.35;;;5.18;;
6651;SDS011;3362;50.892;10.692;2023-07-02T13:55:14;8.52;;;5.63;;
6651;SDS011;3362;50.892;10.692;2023-07-02T13:57:41;11.30;;;5.35;;
6651;SDS011;3362;50.892;10.692;2023-07-02T14:00:09;8.75;;;4.35;;
6651;SDS011;3362;50.892;10.692;2023-07-02T14:02:35;11.38;;;5.50;;
6651;SDS011;3362;50.892;10.692;2023-07-02T14:05:02;13.77;;;6.15;;
6651;SDS011;3362;50.892;10.692;2023-07-02T14:07:28;13.48;;;5.10;;
6651;SDS011;3362;50.892;10.692;2023-07-02T14:09:54;14.73;;;5.28;;
6651;SDS011;3362;50.892;10.692;2023-07-02T14:12:21;9.65;;;5.28;;
6651;SDS011;3362;50.892;10.692;2023-07-02T14:14:47;10.30;;;5.15;;
6651;SDS011;3362;50.892;10.692;2023-07-02T14:17:14;12.98;;;5.80;;
6651;SDS011;3362;50.892;10.692;2023-07-02T14:19:41;12.65;;;5.07;;
6651;SDS011;3362;50.892;10.692;2023-07-02T14:22:07;10.70;;;5.32;;
6651;SDS011;3362;50.892;10.692;2023-07-02T14:24:33;16.48;;;5.78;;
6651;SDS011;3362;50.892;10.692;2023-07-02T14:27:00;12.25;;;5.22;;
6651;SDS011;3362;50.892;10.692;2023-07-02T14:29:26;8.13;;;5.30;;
6651;SDS011;3362;50.892;10.692;2023-07-02T14:31:52;10.95;;;5.00;;
6651;SDS011;3362;50.892;10.692;2023-07-02T14:34:20;9.98;;;5.43;;
6651;SDS011;3362;50.892;10.692;2023-07-02T14:36:46;13.45;;;5.43;;
6651;SDS011;3362;50.892;10.692;2023-07-02T14:39:12;9.15;;;5.05;;
6651;SDS011;3362;50.892;10.692;2023-07-02T14:41:38;10.63;;;5.70;;
6651;SDS011;3362;50.892;10.692;2023-07-02T14:44:04;13.52;;;4.93;;
6651;SDS011;3362;50.892;10.692;2023-07-02T14:46:31;10.57;;;5.60;;
6651;SDS011;3362;50.892;10.692;2023-07-02T14:48:57;11.98;;;5.38;;
6651;SDS011;3362;50.892;10.692;2023-07-02T14:51:25;12.20;;;5.38;;
6651;SDS011;3362;50.892;10.692;2023-07-02T14:53:51;9.15;;;5.13;;
6651;SDS011;3362;50.892;10.692;2023-07-02T14:56:17;9.60;;;5.57;;